createdAt,value
2018-12-03T00:00:08.519Z,21.02
2018-12-03T00:01:08.551Z,21.01
2018-12-03T00:02:08.595Z,21.06
2018-12-03T00:03:08.627Z,21.14
2018-12-03T00:04:08.680Z,21.08
2018-12-03T00:05:08.741Z,21.06
2018-12-03T00:06:08.790Z,21.20
2018-12-03T00:07:08.822Z,21.17
2018-12-03T00:08:08.874Z,21.09
2018-12-03T00:09:08.915Z,21.09
2018-12-03T00:10:08.966Z,21.13
2018-12-03T00:11:09.004Z,21.04
2018-12-03T00:12:09.036Z,21.13
2018-12-03T00:13:09.082Z,21.04
2018-12-03T00:14:09.144Z,20.95
2018-12-03T00:15:09.413Z,20.80
2018-12-03T00:16:09.252Z,20.80
2018-12-03T00:17:09.279Z,20.69
2018-12-03T00:18:09.335Z,20.53
2018-12-03T00:19:09.367Z,20.58
2018-12-03T00:20:09.414Z,20.51
2018-12-03T00:21:09.507Z,20.42
2018-12-03T00:22:09.503Z,20.43
2018-12-03T00:23:09.578Z,20.34
2018-12-03T00:24:09.601Z,20.35
2018-12-03T00:25:09.656Z,20.34
2018-12-03T00:26:09.693Z,20.27
2018-12-03T00:27:09.714Z,20.25
2018-12-03T00:28:09.825Z,20.24
2018-12-03T00:29:09.826Z,20.27
2018-12-03T00:30:09.851Z,20.24
2018-12-03T00:31:09.902Z,20.25
2018-12-03T00:32:09.987Z,20.23
2018-12-03T00:33:10.007Z,20.16
2018-12-03T00:34:10.058Z,20.13
2018-12-03T00:35:10.086Z,20.15
2018-12-03T00:36:10.125Z,20.15
2018-12-03T00:37:10.470Z,20.15
2018-12-03T00:38:10.200Z,20.13
2018-12-03T00:39:10.267Z,20.16
2018-12-03T00:40:10.326Z,20.13
2018-12-03T00:41:10.362Z,20.12
2018-12-03T00:42:10.446Z,20.13
2018-12-03T00:43:10.496Z,20.10
2018-12-03T00:44:10.500Z,20.18
2018-12-03T00:45:10.534Z,20.12
2018-12-03T00:46:10.645Z,20.12
2018-12-03T00:47:10.677Z,20.09
2018-12-03T00:48:10.695Z,20.10
2018-12-03T00:49:10.724Z,20.15
2018-12-03T00:50:10.773Z,20.12
2018-12-03T00:51:10.811Z,20.15
2018-12-03T00:52:10.900Z,20.25
2018-12-03T00:53:11.203Z,20.24
2018-12-03T00:54:10.988Z,20.21
2018-12-03T00:55:10.997Z,20.28
2018-12-03T00:56:11.081Z,20.27
2018-12-03T00:57:11.083Z,20.25
2018-12-03T00:58:11.141Z,20.30
2018-12-03T00:59:11.163Z,20.23
2018-12-03T01:00:11.221Z,20.25
2018-12-03T01:01:11.258Z,20.21
2018-12-03T01:02:11.300Z,20.28
2018-12-03T01:03:11.331Z,20.25
2018-12-03T01:04:11.395Z,20.24
2018-12-03T01:05:11.447Z,20.15
2018-12-03T01:06:11.471Z,20.05
2018-12-03T01:07:11.529Z,19.95
2018-12-03T01:08:11.592Z,19.80
2018-12-03T01:09:11.622Z,19.83
2018-12-03T01:10:11.672Z,19.73
2018-12-03T01:11:11.699Z,19.70
2018-12-03T01:12:11.768Z,19.60
2018-12-03T01:13:11.846Z,19.66
2018-12-03T01:14:11.846Z,19.63
2018-12-03T01:15:11.899Z,19.57
2018-12-03T01:16:11.955Z,19.51
2018-12-03T01:17:11.972Z,19.58
2018-12-03T01:18:12.044Z,19.57
2018-12-03T01:19:12.068Z,19.58
2018-12-03T01:20:12.356Z,19.54
2018-12-03T01:21:12.143Z,19.50
2018-12-03T01:22:12.219Z,19.42
2018-12-03T01:23:12.244Z,19.42
2018-12-03T01:24:12.304Z,19.43
2018-12-03T01:25:12.332Z,19.43
2018-12-03T01:26:12.401Z,19.39
2018-12-03T01:27:12.431Z,19.43
2018-12-03T01:28:12.445Z,19.42
2018-12-03T01:29:12.528Z,19.39
2018-12-03T01:30:12.824Z,19.39
2018-12-03T01:31:12.604Z,19.36
2018-12-03T01:32:12.632Z,19.33
2018-12-03T01:33:12.697Z,19.38
2018-12-03T01:34:12.747Z,19.36
2018-12-03T01:35:12.753Z,19.33
2018-12-03T01:36:12.823Z,19.38
2018-12-03T01:37:12.874Z,19.35
2018-12-03T01:38:12.913Z,19.35
2018-12-03T01:39:12.970Z,19.33
2018-12-03T01:40:12.983Z,19.35
2018-12-03T01:41:13.301Z,19.35
2018-12-03T01:42:13.132Z,19.36
2018-12-03T01:43:13.127Z,19.28
2018-12-03T01:44:13.182Z,19.21
2018-12-03T01:45:13.262Z,19.25
2018-12-03T01:46:13.253Z,19.29
2018-12-03T01:47:13.615Z,19.24
2018-12-03T01:48:13.370Z,19.29
2018-12-03T01:49:13.409Z,19.32
2018-12-03T01:50:13.465Z,19.20
2018-12-03T01:51:13.480Z,19.18
2018-12-03T01:52:13.526Z,19.18
2018-12-03T01:53:13.569Z,19.20
2018-12-03T01:54:13.624Z,19.17
2018-12-03T01:55:13.682Z,19.17
2018-12-03T01:56:13.690Z,19.20
2018-12-03T01:57:14.062Z,19.17
2018-12-03T01:58:13.797Z,19.18
2018-12-03T01:59:13.832Z,19.17
2018-12-03T02:00:13.869Z,19.13
2018-12-03T02:01:13.951Z,19.17
2018-12-03T02:02:13.976Z,19.18
2018-12-03T02:03:14.020Z,19.20
2018-12-03T02:04:14.075Z,19.08
2018-12-03T02:05:14.112Z,18.99
2018-12-03T02:06:14.150Z,19.01
2018-12-03T02:07:14.178Z,19.08
2018-12-03T02:08:14.282Z,18.91
2018-12-03T02:09:14.268Z,18.87
2018-12-03T02:10:14.319Z,18.79
2018-12-03T02:11:14.353Z,18.84
2018-12-03T02:12:14.396Z,18.79
2018-12-03T02:13:14.457Z,18.87
2018-12-03T02:14:14.504Z,18.80
2018-12-03T02:15:14.533Z,18.87
2018-12-03T02:16:14.634Z,18.91
2018-12-03T02:17:14.622Z,18.83
2018-12-03T02:18:14.682Z,18.86
2018-12-03T02:19:14.728Z,18.94
2018-12-03T02:20:14.778Z,18.84
2018-12-03T02:21:14.794Z,18.77
2018-12-03T02:22:14.848Z,18.79
2018-12-03T02:23:14.882Z,18.84
2018-12-03T02:24:14.940Z,18.84
2018-12-03T02:25:14.986Z,18.87
2018-12-03T02:26:15.040Z,18.77
2018-12-03T02:27:15.076Z,18.86
2018-12-03T02:28:15.128Z,18.74
2018-12-03T02:29:15.151Z,18.79
2018-12-03T02:30:15.216Z,18.83
2018-12-03T02:31:15.561Z,18.65
2018-12-03T02:32:15.387Z,18.80
2018-12-03T02:33:15.326Z,18.72
2018-12-03T02:34:15.385Z,18.74
2018-12-03T02:35:15.409Z,18.73
2018-12-03T02:36:15.521Z,18.77
2018-12-03T02:37:15.503Z,18.79
2018-12-03T02:38:15.608Z,18.68
2018-12-03T02:39:15.592Z,18.67
2018-12-03T02:40:15.658Z,18.68
2018-12-03T02:41:15.689Z,18.73
2018-12-03T02:42:15.725Z,18.68
2018-12-03T02:43:15.792Z,18.59
2018-12-03T02:44:15.832Z,18.64
2018-12-03T02:45:15.907Z,18.73
2018-12-03T02:46:15.920Z,18.57
2018-12-03T02:47:15.970Z,18.59
2018-12-03T02:48:15.987Z,18.55
2018-12-03T02:49:16.049Z,18.54
2018-12-03T02:50:16.107Z,18.46
2018-12-03T02:51:16.124Z,18.39
2018-12-03T02:52:16.427Z,18.46
2018-12-03T02:53:16.260Z,18.50
2018-12-03T02:54:16.251Z,18.40
2018-12-03T02:55:16.324Z,18.57
2018-12-03T02:56:16.348Z,18.55
2018-12-03T02:57:16.397Z,18.58
2018-12-03T02:58:16.451Z,18.52
2018-12-03T02:59:16.493Z,18.54
2018-12-03T03:00:16.536Z,18.57
2018-12-03T03:01:16.592Z,18.49
2018-12-03T03:02:16.621Z,18.54
2018-12-03T03:03:16.679Z,18.54
2018-12-03T03:04:16.719Z,18.54
2018-12-03T03:05:16.746Z,18.50
2018-12-03T03:06:16.800Z,18.62
2018-12-03T03:07:16.833Z,18.47
2018-12-03T03:08:16.901Z,18.50
2018-12-03T03:09:16.923Z,18.47
2018-12-03T03:10:17.028Z,18.43
2018-12-03T03:11:17.026Z,18.46
2018-12-03T03:12:17.092Z,18.40
2018-12-03T03:13:17.116Z,18.39
2018-12-03T03:14:17.149Z,18.40
2018-12-03T03:15:17.202Z,18.44
2018-12-03T03:16:17.254Z,18.43
2018-12-03T03:17:17.321Z,18.36
2018-12-03T03:18:17.581Z,18.37
2018-12-03T03:19:17.378Z,18.36
2018-12-03T03:20:17.421Z,18.40
2018-12-03T03:21:17.478Z,18.39
2018-12-03T03:22:17.516Z,18.44
2018-12-03T03:23:17.546Z,18.42
2018-12-03T03:24:17.853Z,18.36
2018-12-03T03:25:17.653Z,18.29
2018-12-03T03:26:17.689Z,18.33
2018-12-03T03:27:17.733Z,18.33
2018-12-03T03:28:17.782Z,18.36
2018-12-03T03:29:17.843Z,18.25
2018-12-03T03:30:17.879Z,18.33
2018-12-03T03:31:17.919Z,18.29
2018-12-03T03:32:17.934Z,18.22
2018-12-03T03:33:18.045Z,18.31
2018-12-03T03:34:18.027Z,18.29
2018-12-03T03:35:18.079Z,18.22
2018-12-03T03:36:18.177Z,18.25
2018-12-03T03:37:18.176Z,18.25
2018-12-03T03:38:18.233Z,18.27
2018-12-03T03:39:18.262Z,18.21
2018-12-03T03:40:18.298Z,18.25
2018-12-03T03:41:18.659Z,18.28
2018-12-03T03:42:18.390Z,18.29
2018-12-03T03:43:18.435Z,18.28
2018-12-03T03:44:18.494Z,18.25
2018-12-03T03:45:18.529Z,18.27
2018-12-03T03:46:18.549Z,18.27
2018-12-03T03:47:18.594Z,18.33
2018-12-03T03:48:18.682Z,18.34
2018-12-03T03:49:18.701Z,18.34
2018-12-03T03:50:18.729Z,18.37
2018-12-03T03:51:18.783Z,18.37
2018-12-03T03:52:19.065Z,18.43
2018-12-03T03:53:18.883Z,18.36
2018-12-03T03:54:25.108Z,18.36
2018-12-03T03:55:19.020Z,18.39
2018-12-03T03:56:19.002Z,18.36
2018-12-03T03:57:19.049Z,18.39
2018-12-03T03:58:19.072Z,18.31
2018-12-03T03:59:19.148Z,18.34
2018-12-03T04:00:19.183Z,18.34
2018-12-03T04:01:19.257Z,18.39
2018-12-03T04:02:19.570Z,18.37
2018-12-03T04:03:19.315Z,18.34
2018-12-03T04:04:19.367Z,18.37
2018-12-03T04:05:19.411Z,18.33
2018-12-03T04:06:19.439Z,18.39
2018-12-03T04:07:19.502Z,18.22
2018-12-03T04:08:19.782Z,18.21
2018-12-03T04:09:19.573Z,18.25
2018-12-03T04:10:19.619Z,18.31
2018-12-03T04:11:19.659Z,18.28
2018-12-03T04:12:19.707Z,18.36
2018-12-03T04:13:19.745Z,18.21
2018-12-03T04:14:19.806Z,18.29
2018-12-03T04:15:19.891Z,18.33
2018-12-03T04:16:19.881Z,18.22
2018-12-03T04:17:19.924Z,18.24
2018-12-03T04:18:20.232Z,18.25
2018-12-03T04:19:20.021Z,18.25
2018-12-03T04:20:20.081Z,18.19
2018-12-03T04:21:20.153Z,18.27
2018-12-03T04:22:20.202Z,18.24
2018-12-03T04:23:20.201Z,18.22
2018-12-03T04:24:20.279Z,18.33
2018-12-03T04:25:20.299Z,18.24
2018-12-03T04:26:20.342Z,18.28
2018-12-03T04:27:20.386Z,18.21
2018-12-03T04:28:20.671Z,18.22
2018-12-03T04:29:20.456Z,18.24
2018-12-03T04:30:20.518Z,18.22
2018-12-03T04:31:20.546Z,18.36
2018-12-03T04:32:20.607Z,18.29
2018-12-03T04:33:20.937Z,18.27
2018-12-03T04:34:20.659Z,18.34
2018-12-03T04:35:20.725Z,18.36
2018-12-03T04:36:20.766Z,18.29
2018-12-03T04:37:20.854Z,18.29
2018-12-03T04:38:20.892Z,18.25
2018-12-03T04:39:21.152Z,18.25
2018-12-03T04:40:20.957Z,18.19
2018-12-03T04:41:21.004Z,18.24
2018-12-03T04:42:21.034Z,18.18
2018-12-03T04:43:21.075Z,18.21
2018-12-03T04:44:21.369Z,18.15
2018-12-03T04:45:21.182Z,18.29
2018-12-03T04:46:21.254Z,18.24
2018-12-03T04:47:21.266Z,18.22
2018-12-03T04:48:21.296Z,18.22
2018-12-03T04:49:21.336Z,18.25
2018-12-03T04:50:21.388Z,18.25
2018-12-03T04:51:21.411Z,18.24
2018-12-03T04:52:21.483Z,18.27
2018-12-03T04:53:21.509Z,18.25
2018-12-03T04:54:21.575Z,18.22
2018-12-03T04:55:21.615Z,18.25
2018-12-03T04:56:21.645Z,18.21
2018-12-03T04:57:21.729Z,18.28
2018-12-03T04:58:21.727Z,18.25
2018-12-03T04:59:21.779Z,18.25
2018-12-03T05:00:21.823Z,18.27
2018-12-03T05:01:22.125Z,18.24
2018-12-03T05:02:21.920Z,18.25
2018-12-03T05:03:21.959Z,18.22
2018-12-03T05:04:22.012Z,18.19
2018-12-03T05:05:22.049Z,18.25
2018-12-03T05:06:22.081Z,18.34
2018-12-03T05:07:22.135Z,18.36
2018-12-03T05:08:22.183Z,18.28
2018-12-03T05:09:22.211Z,18.27
2018-12-03T05:10:22.274Z,18.39
2018-12-03T05:11:22.305Z,18.31
2018-12-03T05:12:22.399Z,18.34
2018-12-03T05:13:22.387Z,18.36
2018-12-03T05:14:22.459Z,18.34
2018-12-03T05:15:22.490Z,18.37
2018-12-03T05:16:22.524Z,18.27
2018-12-03T05:17:22.849Z,18.28
2018-12-03T05:18:22.614Z,18.27
2018-12-03T05:19:22.675Z,18.31
2018-12-03T05:20:22.693Z,18.31
2018-12-03T05:21:22.756Z,18.29
2018-12-03T05:22:22.777Z,18.33
2018-12-03T05:23:23.108Z,18.25
2018-12-03T05:24:22.887Z,18.29
2018-12-03T05:25:22.922Z,18.28
2018-12-03T05:26:23.014Z,18.31
2018-12-03T05:27:23.032Z,18.34
2018-12-03T05:28:23.098Z,18.33
2018-12-03T05:29:23.144Z,18.29
2018-12-03T05:30:23.157Z,18.33
2018-12-03T05:31:23.211Z,18.29
2018-12-03T05:32:23.245Z,18.25
2018-12-03T05:33:23.563Z,18.29
2018-12-03T05:34:23.366Z,18.19
2018-12-03T05:35:23.380Z,18.19
2018-12-03T05:36:23.422Z,18.18
2018-12-03T05:37:23.448Z,18.27
2018-12-03T05:38:23.494Z,18.18
2018-12-03T05:39:23.568Z,18.25
2018-12-03T05:40:23.609Z,18.27
2018-12-03T05:41:23.605Z,18.25
2018-12-03T05:42:23.671Z,18.31
2018-12-03T05:43:23.951Z,18.21
2018-12-03T05:44:23.753Z,18.15
2018-12-03T05:45:23.808Z,18.19
2018-12-03T05:46:23.841Z,18.27
2018-12-03T05:47:23.901Z,18.17
2018-12-03T05:48:24.242Z,18.17
2018-12-03T05:49:23.963Z,18.25
2018-12-03T05:50:24.023Z,18.22
2018-12-03T05:51:24.114Z,18.27
2018-12-03T05:52:24.119Z,18.33
2018-12-03T05:53:24.176Z,18.27
2018-12-03T05:54:24.185Z,18.29
2018-12-03T05:55:24.283Z,18.19
2018-12-03T05:56:24.280Z,18.25
2018-12-03T05:57:24.341Z,18.25
2018-12-03T05:58:24.371Z,18.25
2018-12-03T05:59:24.432Z,18.22
2018-12-03T06:00:24.495Z,18.19
2018-12-03T06:01:24.488Z,18.28
2018-12-03T06:02:24.559Z,18.29
2018-12-03T06:03:24.577Z,18.22
2018-12-03T06:04:24.871Z,18.18
2018-12-03T06:05:24.680Z,18.22
2018-12-03T06:06:24.699Z,18.27
2018-12-03T06:07:24.793Z,18.24
2018-12-03T06:08:24.830Z,18.22
2018-12-03T06:09:24.859Z,18.27
2018-12-03T06:10:24.877Z,18.33
2018-12-03T06:11:24.948Z,18.19
2018-12-03T06:12:24.984Z,18.21
2018-12-03T06:13:25.055Z,18.21
2018-12-03T06:14:25.067Z,18.27
2018-12-03T06:15:25.356Z,18.25
2018-12-03T06:16:25.153Z,18.24
2018-12-03T06:17:25.206Z,18.21
2018-12-03T06:18:25.236Z,18.34
2018-12-03T06:19:25.278Z,18.29
2018-12-03T06:20:25.310Z,18.34
2018-12-03T06:21:25.364Z,18.29
2018-12-03T06:22:25.413Z,18.21
2018-12-03T06:23:25.473Z,18.33
2018-12-03T06:24:25.511Z,18.25
2018-12-03T06:25:25.559Z,18.22
2018-12-03T06:26:25.596Z,18.29
2018-12-03T06:27:25.656Z,18.22
2018-12-03T06:28:25.687Z,18.24
2018-12-03T06:29:25.742Z,18.22
2018-12-03T06:30:25.765Z,18.19
2018-12-03T06:31:25.825Z,18.28
2018-12-03T06:32:26.121Z,18.27
2018-12-03T06:33:25.883Z,18.27
2018-12-03T06:34:25.951Z,18.21
2018-12-03T06:35:26.027Z,18.25
2018-12-03T06:36:26.035Z,18.15
2018-12-03T06:37:26.073Z,18.17
2018-12-03T06:38:26.113Z,18.10
2018-12-03T06:39:26.157Z,18.10
2018-12-03T06:40:26.224Z,18.12
2018-12-03T06:41:26.249Z,18.17
2018-12-03T06:42:26.279Z,18.18
2018-12-03T06:43:26.345Z,18.15
2018-12-03T06:44:26.443Z,18.10
2018-12-03T06:45:26.476Z,18.10
2018-12-03T06:46:26.509Z,18.17
2018-12-03T06:47:26.502Z,18.07
2018-12-03T06:48:26.567Z,18.10
2018-12-03T06:49:26.604Z,18.09
2018-12-03T06:50:26.636Z,18.18
2018-12-03T06:51:26.700Z,18.09
2018-12-03T06:52:26.746Z,18.17
2018-12-03T06:53:26.770Z,18.21
2018-12-03T06:54:26.845Z,18.17
2018-12-03T06:55:26.852Z,18.15
2018-12-03T06:56:26.885Z,18.07
2018-12-03T06:57:26.998Z,18.19
2018-12-03T06:58:27.305Z,18.15
2018-12-03T06:59:27.061Z,18.13
2018-12-03T07:00:27.133Z,18.15
2018-12-03T07:01:27.112Z,18.15
2018-12-03T07:04:12.408Z,18.12
2018-12-03T07:05:12.438Z,18.19
2018-12-03T07:06:12.485Z,18.13
2018-12-03T07:07:12.528Z,18.17
2018-12-03T07:08:12.574Z,18.19
2018-12-03T07:09:12.869Z,18.17
2018-12-03T07:10:12.659Z,18.19
2018-12-03T07:11:12.703Z,18.18
2018-12-03T07:12:12.748Z,18.17
2018-12-03T07:13:12.845Z,18.17
2018-12-03T07:14:12.838Z,18.28
2018-12-03T07:15:12.926Z,18.29
2018-12-03T07:16:12.943Z,18.19
2018-12-03T07:17:12.958Z,18.28
2018-12-03T07:18:13.013Z,18.17
2018-12-03T07:19:13.063Z,18.10
2018-12-03T07:20:13.091Z,18.15
2018-12-03T07:21:13.136Z,18.06
2018-12-03T07:22:13.240Z,18.21
2018-12-03T07:23:13.227Z,18.17
2018-12-03T07:24:13.274Z,18.06
2018-12-03T07:25:13.568Z,18.12
2018-12-03T07:26:13.359Z,18.13
2018-12-03T07:27:13.406Z,18.06
2018-12-03T07:28:13.500Z,18.07
2018-12-03T07:29:13.487Z,18.12
2018-12-03T07:30:13.551Z,18.02
2018-12-03T07:31:13.564Z,18.00
2018-12-03T07:32:13.604Z,18.02
2018-12-03T07:33:13.668Z,17.97
2018-12-03T07:34:13.701Z,18.00
2018-12-03T07:35:13.750Z,17.92
2018-12-03T07:36:14.093Z,17.89
2018-12-03T07:37:13.846Z,17.94
2018-12-03T07:38:13.897Z,17.91
2018-12-03T07:39:13.933Z,17.97
2018-12-03T07:40:13.976Z,17.84
2018-12-03T07:41:14.241Z,17.81
2018-12-03T07:42:14.055Z,17.74
2018-12-03T07:43:14.095Z,17.78
2018-12-03T07:44:14.127Z,17.76
2018-12-03T07:45:14.219Z,17.74
2018-12-03T07:46:14.243Z,17.66
2018-12-03T07:47:14.329Z,17.69
2018-12-03T07:48:14.321Z,17.71
2018-12-03T07:49:14.354Z,17.66
2018-12-03T07:50:14.404Z,17.71
2018-12-03T07:51:14.458Z,17.74
2018-12-03T07:52:14.803Z,17.71
2018-12-03T07:53:14.531Z,17.64
2018-12-03T07:54:14.581Z,17.73
2018-12-03T07:55:14.608Z,17.67
2018-12-03T07:56:14.681Z,17.63
2018-12-03T07:57:14.705Z,17.62
2018-12-03T07:58:14.748Z,17.46
2018-12-03T07:59:14.808Z,17.44
2018-12-03T08:00:14.885Z,17.50
2018-12-03T08:01:14.876Z,17.53
2018-12-03T08:02:14.912Z,17.50
2018-12-03T08:03:14.959Z,17.57
2018-12-03T08:04:14.996Z,17.48
2018-12-03T08:05:15.075Z,17.47
2018-12-03T08:06:15.143Z,17.48
2018-12-03T08:07:15.147Z,17.55
2018-12-03T08:08:15.171Z,17.55
2018-12-03T08:09:15.230Z,17.67
2018-12-03T08:10:15.295Z,17.62
2018-12-03T08:11:15.300Z,17.57
2018-12-03T08:12:15.354Z,17.57
2018-12-03T08:13:15.441Z,17.55
2018-12-03T08:14:15.457Z,17.59
2018-12-03T08:15:15.498Z,17.59
2018-12-03T08:16:15.581Z,17.55
2018-12-03T08:17:15.560Z,17.63
2018-12-03T08:18:15.930Z,17.59
2018-12-03T08:19:15.635Z,17.57
2018-12-03T08:20:15.749Z,17.59
2018-12-03T08:21:15.750Z,17.62
2018-12-03T08:22:15.802Z,17.50
2018-12-03T08:23:15.831Z,17.64
2018-12-03T08:24:15.879Z,17.53
2018-12-03T08:25:15.908Z,17.54
2018-12-03T08:26:15.965Z,17.59
2018-12-03T08:27:15.980Z,17.62
2018-12-03T08:28:16.041Z,17.66
2018-12-03T08:29:16.073Z,17.71
2018-12-03T08:30:16.123Z,17.71
2018-12-03T08:31:16.216Z,17.73
2018-12-03T08:32:16.208Z,17.70
2018-12-03T08:33:16.255Z,17.73
2018-12-03T08:34:16.597Z,17.67
2018-12-03T08:35:16.357Z,17.63
2018-12-03T08:36:16.386Z,17.73
2018-12-03T08:37:16.433Z,17.74
2018-12-03T08:38:16.483Z,17.81
2018-12-03T08:39:16.538Z,17.79
2018-12-03T08:40:42.250Z,17.79
2018-12-03T08:41:16.651Z,17.91
2018-12-03T08:42:16.654Z,17.89
2018-12-03T08:43:16.718Z,17.79
2018-12-03T08:44:16.753Z,17.85
2018-12-03T08:45:16.829Z,17.76
2018-12-03T08:46:16.823Z,17.81
2018-12-03T08:47:16.922Z,17.82
2018-12-03T08:48:16.958Z,17.79
2018-12-03T08:49:16.944Z,17.85
2018-12-03T08:50:17.009Z,17.84
2018-12-03T08:51:17.048Z,17.81
2018-12-03T08:52:17.097Z,17.76
2018-12-03T08:53:17.145Z,17.85
2018-12-03T08:54:17.162Z,17.91
2018-12-03T08:55:17.231Z,17.88
2018-12-03T08:56:17.553Z,17.95
2018-12-03T08:57:17.318Z,17.92
2018-12-03T08:58:17.361Z,17.94
2018-12-03T08:59:17.384Z,17.92
2018-12-03T09:00:18.616Z,17.91
2018-12-03T09:01:17.514Z,17.91
2018-12-03T09:02:17.592Z,17.81
2018-12-03T09:03:17.572Z,17.81
2018-12-03T09:04:17.604Z,17.85
2018-12-03T09:05:17.674Z,17.76
2018-12-03T09:06:17.711Z,17.89
2018-12-03T09:07:17.745Z,17.81
2018-12-03T09:08:17.799Z,17.91
2018-12-03T09:09:17.821Z,17.81
2018-12-03T09:10:17.881Z,17.84
2018-12-03T09:11:17.898Z,17.92
2018-12-03T09:12:17.977Z,17.88
2018-12-03T09:13:18.036Z,17.92
2018-12-03T09:14:18.066Z,17.91
2018-12-03T09:15:18.096Z,17.95
2018-12-03T09:16:18.141Z,17.92
2018-12-03T09:17:18.440Z,17.94
2018-12-03T09:18:18.229Z,18.03
2018-12-03T09:19:18.262Z,17.85
2018-12-03T09:20:18.334Z,17.94
2018-12-03T09:21:18.343Z,17.82
2018-12-03T09:22:18.401Z,17.81
2018-12-03T09:23:18.440Z,17.87
2018-12-03T09:24:18.475Z,17.92
2018-12-03T09:25:18.532Z,17.99
2018-12-03T09:26:18.559Z,17.92
2018-12-03T09:27:18.880Z,17.95
2018-12-03T09:28:18.668Z,17.99
2018-12-03T09:29:18.706Z,17.99
2018-12-03T09:30:18.735Z,18.00
2018-12-03T09:31:18.787Z,17.94
2018-12-03T09:32:18.846Z,18.00
2018-12-03T09:33:18.889Z,18.04
2018-12-03T09:34:18.921Z,18.02
2018-12-03T09:35:18.972Z,17.97
2018-12-03T09:36:19.014Z,18.00
2018-12-03T09:37:19.318Z,18.06
2018-12-03T09:38:19.153Z,18.04
2018-12-03T09:39:19.192Z,18.02
2018-12-03T09:40:19.231Z,18.17
2018-12-03T09:41:19.231Z,18.04
2018-12-03T09:42:19.288Z,18.00
2018-12-03T09:43:19.316Z,17.99
2018-12-03T09:44:19.371Z,17.99
2018-12-03T09:45:19.416Z,17.92
2018-12-03T09:46:19.456Z,18.09
2018-12-03T09:47:19.500Z,18.12
2018-12-03T09:48:19.535Z,18.02
2018-12-03T09:49:19.597Z,18.12
2018-12-03T09:50:19.625Z,18.15
2018-12-03T09:51:19.686Z,18.25
2018-12-03T09:52:19.720Z,18.15
2018-12-03T09:53:19.792Z,18.06
2018-12-03T09:54:19.801Z,18.17
2018-12-03T09:55:19.859Z,18.31
2018-12-03T09:56:19.893Z,18.22
2018-12-03T09:57:19.926Z,18.37
2018-12-03T09:58:19.983Z,18.47
2018-12-03T09:59:20.020Z,18.59
2018-12-03T10:00:20.075Z,18.50
2018-12-03T10:01:20.165Z,18.36
2018-12-03T10:02:20.146Z,18.50
2018-12-03T10:03:20.203Z,18.54
2018-12-03T10:04:20.239Z,18.54
2018-12-03T10:05:20.305Z,18.47
2018-12-03T10:06:20.334Z,18.42
2018-12-03T10:07:20.386Z,18.49
2018-12-03T10:08:20.449Z,18.54
2018-12-03T10:09:20.458Z,18.49
2018-12-03T10:10:20.503Z,18.54
2018-12-03T10:11:20.572Z,18.46
2018-12-03T10:12:20.608Z,18.34
2018-12-03T10:13:20.650Z,18.44
2018-12-03T10:14:20.702Z,18.40
2018-12-03T10:15:20.758Z,18.27
2018-12-03T10:16:20.869Z,18.29
2018-12-03T10:17:20.825Z,18.24
2018-12-03T10:18:20.865Z,18.21
2018-12-03T10:19:20.920Z,18.24
2018-12-03T10:20:20.968Z,18.25
2018-12-03T10:21:21.010Z,18.39
2018-12-03T10:22:21.055Z,18.34
2018-12-03T10:23:21.080Z,18.36
2018-12-03T10:24:21.127Z,18.31
2018-12-03T10:25:21.160Z,18.40
2018-12-03T10:26:21.235Z,18.43
2018-12-03T10:27:21.321Z,18.39
2018-12-03T10:28:21.329Z,18.47
2018-12-03T10:29:21.355Z,18.40
2018-12-03T10:30:21.396Z,18.50
2018-12-03T10:31:21.437Z,18.52
2018-12-03T10:32:21.506Z,18.47
2018-12-03T10:33:21.729Z,18.42
2018-12-03T10:34:21.590Z,18.46
2018-12-03T10:35:21.619Z,18.47
2018-12-03T10:36:21.671Z,18.46
2018-12-03T10:37:22.033Z,18.50
2018-12-03T10:38:21.758Z,18.50
2018-12-03T10:39:21.831Z,18.49
2018-12-03T10:40:21.861Z,18.47
2018-12-03T10:41:21.899Z,18.54
2018-12-03T10:42:21.952Z,18.55
2018-12-03T10:43:21.993Z,18.54
2018-12-03T10:44:22.043Z,18.61
2018-12-03T10:45:26.167Z,18.54
2018-12-03T10:46:22.156Z,18.62
2018-12-03T10:47:47.881Z,18.74
2018-12-03T10:48:22.205Z,18.58
2018-12-03T10:49:22.257Z,18.47
2018-12-03T10:50:22.459Z,18.52
2018-12-03T10:51:22.345Z,18.50
2018-12-03T10:52:22.397Z,18.59
2018-12-03T10:53:22.453Z,18.61
2018-12-03T10:55:35.342Z,18.57
2018-12-03T10:56:22.551Z,18.47
2018-12-03T10:57:22.650Z,18.49
2018-12-03T10:58:22.655Z,18.49
2018-12-03T10:59:22.721Z,18.39
2018-12-03T11:00:22.843Z,18.40
2018-12-03T11:01:23.057Z,18.46
2018-12-03T11:02:22.835Z,18.40
2018-12-03T11:03:22.882Z,18.39
2018-12-03T11:04:22.969Z,18.44
2018-12-03T11:05:22.981Z,18.50
2018-12-03T11:06:23.003Z,18.46
2018-12-03T11:07:23.073Z,18.42
2018-12-03T11:08:23.091Z,18.43
2018-12-03T11:09:23.123Z,18.47
2018-12-03T11:10:23.201Z,18.44
2018-12-03T11:11:23.490Z,18.47
2018-12-03T11:12:23.321Z,18.37
2018-12-03T11:13:23.338Z,18.43
2018-12-03T11:14:23.372Z,18.42
2018-12-03T11:15:23.407Z,18.52
2018-12-03T11:16:23.502Z,18.40
2018-12-03T11:17:23.522Z,18.42
2018-12-03T11:18:23.554Z,18.40
2018-12-03T11:19:23.607Z,18.47
2018-12-03T11:20:23.643Z,18.39
2018-12-03T11:21:23.679Z,18.34
2018-12-03T11:22:23.721Z,18.28
2018-12-03T11:23:23.778Z,18.37
2018-12-03T11:24:23.827Z,18.27
2018-12-03T11:25:23.853Z,18.39
2018-12-03T11:26:23.955Z,18.54
2018-12-03T11:27:25.237Z,18.73
2018-12-03T11:28:23.989Z,18.94
2018-12-03T11:29:24.034Z,18.79
2018-12-03T11:30:24.108Z,19.10
2018-12-03T11:31:24.121Z,19.31
2018-12-03T11:32:24.176Z,19.31
2018-12-03T11:33:24.231Z,19.38
2018-12-03T11:34:24.261Z,19.39
2018-12-03T11:35:24.305Z,19.38
2018-12-03T11:36:24.356Z,19.40
2018-12-03T11:37:24.395Z,19.55
2018-12-03T11:38:24.475Z,19.55
2018-12-03T11:39:24.531Z,19.42
2018-12-03T11:40:24.550Z,19.47
2018-12-03T11:41:24.582Z,19.72
2018-12-03T11:42:24.691Z,19.87
2018-12-03T11:43:24.713Z,19.90
2018-12-03T11:44:24.727Z,19.88
2018-12-03T11:45:24.782Z,19.90
2018-12-03T11:46:24.814Z,19.88
2018-12-03T11:47:24.918Z,19.91
2018-12-03T11:48:24.924Z,19.83
2018-12-03T11:49:25.285Z,19.88
2018-12-03T11:50:25.026Z,20.05
2018-12-03T11:51:25.068Z,20.27
2018-12-03T11:52:25.098Z,20.51
2018-12-03T11:53:25.155Z,20.80
2018-12-03T11:54:25.195Z,20.99
2018-12-03T11:55:25.298Z,21.20
2018-12-03T11:56:25.314Z,21.08
2018-12-03T11:57:25.352Z,20.95
2018-12-03T11:58:25.404Z,20.62
2018-12-03T11:59:25.435Z,20.49
2018-12-03T12:00:25.498Z,20.65
2018-12-03T12:01:25.522Z,20.90
2018-12-03T12:02:25.590Z,21.01
2018-12-03T12:03:25.651Z,21.08
2018-12-03T12:04:25.685Z,21.09
2018-12-03T12:05:25.759Z,21.23
2018-12-03T12:06:25.798Z,21.11
2018-12-03T12:07:25.833Z,21.13
2018-12-03T12:08:25.878Z,21.20
2018-12-03T12:09:25.925Z,21.24
2018-12-03T12:10:25.983Z,21.30
2018-12-03T12:11:26.060Z,21.60
2018-12-03T12:12:26.079Z,22.02
2018-12-03T12:13:26.123Z,22.72
2018-12-03T12:14:26.182Z,22.97
2018-12-03T12:15:26.205Z,22.87
2018-12-03T12:16:26.268Z,23.12
2018-12-03T12:17:26.330Z,23.17
2018-12-03T12:18:26.346Z,23.04
2018-12-03T12:19:26.463Z,22.80
2018-12-03T12:20:26.453Z,22.77
2018-12-03T12:21:26.504Z,22.84
2018-12-03T12:22:26.580Z,23.01
2018-12-03T12:23:26.608Z,23.12
2018-12-03T12:24:26.677Z,23.35
2018-12-03T12:25:26.715Z,23.55
2018-12-03T12:26:26.777Z,23.58
2018-12-03T12:27:26.870Z,23.65
2018-12-03T12:28:26.883Z,23.46
2018-12-03T12:29:26.928Z,23.72
2018-12-03T12:30:27.015Z,24.44
2018-12-03T12:31:27.029Z,25.07
2018-12-03T12:32:27.058Z,25.13
2018-12-03T12:33:27.175Z,24.92
2018-12-03T12:34:27.193Z,25.09
2018-12-03T12:35:27.228Z,25.19
2018-12-03T12:36:27.284Z,25.43
2018-12-03T12:37:27.338Z,25.67
2018-12-03T12:38:27.377Z,25.74
2018-12-03T12:39:27.459Z,25.65
2018-12-03T12:40:27.500Z,25.69
2018-12-03T12:41:27.538Z,25.87
2018-12-03T12:42:31.757Z,25.86
2018-12-03T12:43:27.667Z,25.71
2018-12-03T12:44:27.693Z,25.68
2018-12-03T12:45:27.769Z,25.79
2018-12-03T12:46:27.830Z,25.49
2018-12-03T12:47:27.833Z,25.15
2018-12-03T12:48:27.888Z,24.80
2018-12-03T12:49:27.965Z,24.41
2018-12-03T12:50:28.051Z,24.10
2018-12-03T12:51:28.054Z,24.01
2018-12-03T12:52:28.100Z,23.80
2018-12-03T12:53:28.172Z,23.76
2018-12-03T12:54:28.205Z,23.65
2018-12-03T12:55:28.248Z,23.49